PWSweather.com
Personal Weather Stations
Station Observations
KCARIDGE3
Ridgecrest, CA 93555

Ridgecrest, CA 93555

Lat: 35.62083817, Lon: -117.6733017

Elevation: 2315

Station Type:

High Low Average
Temperature 105.4°F40.8°F 75.7°F24.3°F 91.3°F32.9°F
Dew Point 51.6°F10.9°F 39.0°F3.9°F 46.7°F8.2°F
Winds 19.0 mph S30.6 mph S Calm Calm 6.4 mph 10.3 mph
Wind Gusts 27.1 mph43.6 mph -- 6.5 mph10.5 mph
Humidity 39% 11% 23%
Pressure 0.00 in0.00 in 0.00 in0.00 in -
Precipitation 0.00 in0.00 in - -
Hour Temp Dew Point Humidity Winds Wind Gusts Pressure Precip Precip Rate Daily Precip Total
12:02 AM 84.0°F28.9°C 45.5°F7.5°C 26% 4.0 mph SSW6.4 kmh SSW 4.0 mph6.4 kmh -338605.1 mb - 0.00 in0.0 mm 0.00 in0.0 mm
12:07 AM 84.0°F28.9°C 45.5°F7.5°C 26% 2.9 mph SSW4.7 kmh SSW -- -338605.1 mb - 0.00 in0.0 mm 0.00 in0.0 mm
12:12 AM 83.8°F28.8°C 46.2°F7.9°C 27% 2.0 mph S3.2 kmh S 2.0 mph3.2 kmh -338605.1 mb - 0.00 in0.0 mm 0.00 in0.0 mm
12:17 AM 83.7°F28.7°C 46.2°F7.9°C 27% 2.0 mph S3.2 kmh S 2.9 mph4.7 kmh -338605.1 mb - 0.00 in0.0 mm 0.00 in0.0 mm
12:22 AM 83.5°F28.6°C 46.0°F7.8°C 27% 2.0 mph SSE3.2 kmh SSE 2.0 mph3.2 kmh -338605.1 mb - 0.00 in0.0 mm 0.00 in0.0 mm
12:27 AM 83.3°F28.5°C 45.9°F7.7°C 27% 2.0 mph SE3.2 kmh SE 2.0 mph3.2 kmh -338605.1 mb - 0.00 in0.0 mm 0.00 in0.0 mm
12:32 AM 82.9°F28.3°C 46.4°F8.0°C 28% 2.9 mph SE4.7 kmh SE 4.9 mph7.9 kmh -338605.1 mb - 0.00 in0.0 mm 0.00 in0.0 mm
12:37 AM 82.8°F28.2°C 46.4°F8.0°C 28% 4.0 mph SE6.4 kmh SE 6.0 mph9.7 kmh -338605.1 mb - 0.00 in0.0 mm 0.00 in0.0 mm
12:42 AM 82.8°F28.2°C 45.3°F7.4°C 27% 4.9 mph SE7.9 kmh SE 2.9 mph4.7 kmh -338605.1 mb - 0.00 in0.0 mm 0.00 in0.0 mm
12:47 AM 82.6°F28.1°C 46.2°F7.9°C 28% 2.9 mph SE4.7 kmh SE 2.9 mph4.7 kmh -338605.1 mb - 0.00 in0.0 mm 0.00 in0.0 mm
12:52 AM 82.4°F28.0°C 46.0°F7.8°C 28% 2.9 mph SE4.7 kmh SE -- -338605.1 mb - 0.00 in0.0 mm 0.00 in0.0 mm
12:57 AM 82.2°F27.9°C 45.9°F7.7°C 28% 2.9 mph SE4.7 kmh SE 2.9 mph4.7 kmh -338605.1 mb - 0.00 in0.0 mm 0.00 in0.0 mm
01:02 AM 82.0°F27.8°C 45.7°F7.6°C 28% 2.9 mph SE4.7 kmh SE 2.0 mph3.2 kmh -338605.1 mb - 0.00 in0.0 mm 0.00 in0.0 mm
01:07 AM 81.9°F27.7°C 46.4°F8.0°C 29% 2.9 mph SE4.7 kmh SE 4.9 mph7.9 kmh -338605.1 mb - 0.00 in0.0 mm 0.00 in0.0 mm
01:12 AM 81.7°F27.6°C 46.4°F8.0°C 29% 4.9 mph SE7.9 kmh SE 8.9 mph14.3 kmh -338605.1 mb - 0.00 in0.0 mm 0.00 in0.0 mm
01:17 AM 81.9°F27.7°C 46.4°F8.0°C 29% 6.9 mph S11.1 kmh S 4.9 mph7.9 kmh -338605.1 mb - 0.00 in0.0 mm 0.00 in0.0 mm
01:22 AM 81.7°F27.6°C 46.4°F8.0°C 29% 6.9 mph SSW11.1 kmh SSW 6.0 mph9.7 kmh -338605.1 mb - 0.00 in0.0 mm 0.00 in0.0 mm
01:27 AM 81.7°F27.6°C 46.4°F8.0°C 29% 6.0 mph SSW9.7 kmh SSW 4.9 mph7.9 kmh -338605.1 mb - 0.00 in0.0 mm 0.00 in0.0 mm
01:32 AM 81.9°F27.7°C 46.4°F8.0°C 29% 6.0 mph SSW9.7 kmh SSW 6.0 mph9.7 kmh -338605.1 mb - 0.00 in0.0 mm 0.00 in0.0 mm
01:37 AM 81.7°F27.6°C 46.4°F8.0°C 29% 4.9 mph S7.9 kmh S 4.9 mph7.9 kmh -338605.1 mb - 0.00 in0.0 mm 0.00 in0.0 mm
01:42 AM 81.7°F27.6°C 47.3°F8.5°C 30% 4.9 mph SW7.9 kmh SW 6.9 mph11.1 kmh -338605.1 mb - 0.00 in0.0 mm 0.00 in0.0 mm
01:47 AM 81.9°F27.7°C 47.3°F8.5°C 30% 4.9 mph WSW7.9 kmh WSW 4.0 mph6.4 kmh -338605.1 mb - 0.00 in0.0 mm 0.00 in0.0 mm
01:52 AM 81.7°F27.6°C 47.3°F8.5°C 30% 6.0 mph SW9.7 kmh SW 6.0 mph9.7 kmh -338605.1 mb - 0.00 in0.0 mm 0.00 in0.0 mm
01:57 AM 81.7°F27.6°C 47.3°F8.5°C 30% 6.9 mph SW11.1 kmh SW 8.9 mph14.3 kmh -338605.1 mb - 0.00 in0.0 mm 0.00 in0.0 mm
02:02 AM 81.5°F27.5°C 47.1°F8.4°C 30% 8.1 mph SW13.0 kmh SW 8.9 mph14.3 kmh -338605.1 mb - 0.00 in0.0 mm 0.00 in0.0 mm
02:07 AM 81.3°F27.4°C 47.8°F8.8°C 31% 8.1 mph WSW13.0 kmh WSW 8.1 mph13.0 kmh -338605.1 mb - 0.00 in0.0 mm 0.00 in0.0 mm
02:12 AM 81.3°F27.4°C 47.8°F8.8°C 31% 6.9 mph SW11.1 kmh SW 8.1 mph13.0 kmh -338605.1 mb - 0.00 in0.0 mm 0.00 in0.0 mm
02:17 AM 81.1°F27.3°C 46.8°F8.2°C 30% 6.9 mph WSW11.1 kmh WSW 6.0 mph9.7 kmh -338605.1 mb - 0.00 in0.0 mm 0.00 in0.0 mm
02:22 AM 81.0°F27.2°C 46.6°F8.1°C 30% 6.9 mph W11.1 kmh W 6.9 mph11.1 kmh -338605.1 mb - 0.00 in0.0 mm 0.00 in0.0 mm
02:27 AM 81.0°F27.2°C 46.6°F8.1°C 30% 6.0 mph WSW9.7 kmh WSW 6.0 mph9.7 kmh -338605.1 mb - 0.00 in0.0 mm 0.00 in0.0 mm
02:32 AM 80.8°F27.1°C 46.4°F8.0°C 30% 6.0 mph WSW9.7 kmh WSW 6.9 mph11.1 kmh -338605.1 mb - 0.00 in0.0 mm 0.00 in0.0 mm
02:37 AM 80.8°F27.1°C 46.4°F8.0°C 30% 6.9 mph WSW11.1 kmh WSW 6.9 mph11.1 kmh -338605.1 mb - 0.00 in0.0 mm 0.00 in0.0 mm
02:42 AM 80.8°F27.1°C 46.4°F8.0°C 30% 6.9 mph WSW11.1 kmh WSW 6.9 mph11.1 kmh -338605.1 mb - 0.00 in0.0 mm 0.00 in0.0 mm
02:47 AM 80.8°F27.1°C 46.4°F8.0°C 30% 6.9 mph WSW11.1 kmh WSW 2.9 mph4.7 kmh -338605.1 mb - 0.00 in0.0 mm 0.00 in0.0 mm
02:52 AM 80.6°F27.0°C 46.2°F7.9°C 30% 6.0 mph WSW9.7 kmh WSW 4.0 mph6.4 kmh -338605.1 mb - 0.00 in0.0 mm 0.00 in0.0 mm
02:57 AM 80.4°F26.9°C 46.2°F7.9°C 30% 4.9 mph SW7.9 kmh SW 4.0 mph6.4 kmh -338605.1 mb - 0.00 in0.0 mm 0.00 in0.0 mm
03:02 AM 80.4°F26.9°C 46.2°F7.9°C 30% 4.0 mph SW6.4 kmh SW 4.9 mph7.9 kmh -338605.1 mb - 0.00 in0.0 mm 0.00 in0.0 mm
03:07 AM 80.2°F26.8°C 46.0°F7.8°C 30% 2.9 mph SW4.7 kmh SW 2.0 mph3.2 kmh -338605.1 mb - 0.00 in0.0 mm 0.00 in0.0 mm
03:12 AM 80.2°F26.8°C 46.9°F8.3°C 31% 2.0 mph SW3.2 kmh SW 2.9 mph4.7 kmh -338605.1 mb - 0.00 in0.0 mm 0.00 in0.0 mm
03:17 AM 80.1°F26.7°C 46.8°F8.2°C 31% 2.9 mph SW4.7 kmh SW 4.9 mph7.9 kmh -338605.1 mb - 0.00 in0.0 mm 0.00 in0.0 mm
03:22 AM 79.9°F26.6°C 46.6°F8.1°C 31% 4.0 mph SW6.4 kmh SW 4.9 mph7.9 kmh -338605.1 mb - 0.00 in0.0 mm 0.00 in0.0 mm
03:27 AM 79.5°F26.4°C 46.2°F7.9°C 31% 4.0 mph WSW6.4 kmh WSW 4.0 mph6.4 kmh -338605.1 mb - 0.00 in0.0 mm 0.00 in0.0 mm
03:32 AM 79.3°F26.3°C 46.0°F7.8°C 31% 4.0 mph WSW6.4 kmh WSW 4.9 mph7.9 kmh -338605.1 mb - 0.00 in0.0 mm 0.00 in0.0 mm
03:37 AM 79.3°F26.3°C 46.9°F8.3°C 32% 4.9 mph W7.9 kmh W 6.0 mph9.7 kmh -338605.1 mb - 0.00 in0.0 mm 0.00 in0.0 mm
03:42 AM 80.4°F26.9°C 46.2°F7.9°C 30% 4.9 mph WSW7.9 kmh WSW 4.9 mph7.9 kmh -338605.1 mb - 0.00 in0.0 mm 0.00 in0.0 mm
03:47 AM 80.2°F26.8°C 46.0°F7.8°C 30% 4.9 mph W7.9 kmh W 4.9 mph7.9 kmh -338605.1 mb - 0.00 in0.0 mm 0.00 in0.0 mm
03:52 AM 81.5°F27.5°C 46.2°F7.9°C 29% 4.9 mph WNW7.9 kmh WNW 6.9 mph11.1 kmh -338605.1 mb - 0.00 in0.0 mm 0.00 in0.0 mm
03:57 AM 81.3°F27.4°C 46.0°F7.8°C 29% 4.9 mph WNW7.9 kmh WNW 4.0 mph6.4 kmh -338605.1 mb - 0.00 in0.0 mm 0.00 in0.0 mm
04:02 AM 81.3°F27.4°C 46.0°F7.8°C 29% 2.9 mph NW4.7 kmh NW 4.0 mph6.4 kmh -338605.1 mb - 0.00 in0.0 mm 0.00 in0.0 mm
04:07 AM 81.1°F27.3°C 45.9°F7.7°C 29% 2.9 mph NW4.7 kmh NW 2.0 mph3.2 kmh -338605.1 mb - 0.00 in0.0 mm 0.00 in0.0 mm
04:12 AM 81.1°F27.3°C 46.8°F8.2°C 30% 2.9 mph NW4.7 kmh NW 2.9 mph4.7 kmh -338605.1 mb - 0.00 in0.0 mm 0.00 in0.0 mm
04:17 AM 81.0°F27.2°C 46.6°F8.1°C 30% 2.9 mph NW4.7 kmh NW 4.0 mph6.4 kmh -338605.1 mb - 0.00 in0.0 mm 0.00 in0.0 mm
04:22 AM 80.4°F26.9°C 46.2°F7.9°C 30% 2.9 mph WNW4.7 kmh WNW 2.9 mph4.7 kmh -338605.1 mb - 0.00 in0.0 mm 0.00 in0.0 mm
04:27 AM 80.2°F26.8°C 46.0°F7.8°C 30% 2.9 mph WSW4.7 kmh WSW 2.9 mph4.7 kmh -338605.1 mb - 0.00 in0.0 mm 0.00 in0.0 mm
04:32 AM 79.9°F26.6°C 46.6°F8.1°C 31% 2.9 mph SW4.7 kmh SW 2.9 mph4.7 kmh -338605.1 mb - 0.00 in0.0 mm 0.00 in0.0 mm
04:37 AM 79.7°F26.5°C 46.4°F8.0°C 31% 2.0 mph SSW3.2 kmh SSW -- -338605.1 mb - 0.00 in0.0 mm 0.00 in0.0 mm
04:42 AM 79.2°F26.2°C 46.8°F8.2°C 32% 0.9 mph SSE1.4 kmh SSE -- -338605.1 mb - 0.00 in0.0 mm 0.00 in0.0 mm
04:47 AM 79.0°F26.1°C 46.6°F8.1°C 32% 0.9 mph SE1.4 kmh SE -- -338605.1 mb - 0.00 in0.0 mm 0.00 in0.0 mm
04:52 AM 78.4°F25.8°C 46.9°F8.3°C 33% 0.9 mph SE1.4 kmh SE 2.0 mph3.2 kmh -338605.1 mb - 0.00 in0.0 mm 0.00 in0.0 mm
04:57 AM 78.6°F25.9°C 47.1°F8.4°C 33% 2.0 mph SE3.2 kmh SE 0.9 mph1.4 kmh -338605.1 mb - 0.00 in0.0 mm 0.00 in0.0 mm
05:02 AM 78.4°F25.8°C 46.9°F8.3°C 33% 0.9 mph SE1.4 kmh SE 2.9 mph4.7 kmh -338605.1 mb - 0.00 in0.0 mm 0.00 in0.0 mm
05:07 AM 78.3°F25.7°C 46.8°F8.2°C 33% 2.0 mph SE3.2 kmh SE 4.0 mph6.4 kmh -338605.1 mb - 0.00 in0.0 mm 0.00 in0.0 mm
05:12 AM 78.1°F25.6°C 46.6°F8.1°C 33% 2.9 mph SE4.7 kmh SE 4.0 mph6.4 kmh -338605.1 mb - 0.00 in0.0 mm 0.00 in0.0 mm
05:17 AM 77.9°F25.5°C 46.4°F8.0°C 33% 4.0 mph SE6.4 kmh SE 4.0 mph6.4 kmh -338605.1 mb - 0.00 in0.0 mm 0.00 in0.0 mm
05:22 AM 77.5°F25.3°C 47.7°F8.7°C 35% 4.0 mph SE6.4 kmh SE 4.0 mph6.4 kmh -338605.1 mb - 0.00 in0.0 mm 0.00 in0.0 mm
05:27 AM 77.4°F25.2°C 47.5°F8.6°C 35% 2.9 mph SE4.7 kmh SE 4.0 mph6.4 kmh -338605.1 mb - 0.00 in0.0 mm 0.00 in0.0 mm
05:32 AM 77.2°F25.1°C 48.2°F9.0°C 36% 2.9 mph SE4.7 kmh SE 2.9 mph4.7 kmh -338605.1 mb - 0.00 in0.0 mm 0.00 in0.0 mm
05:37 AM 76.8°F24.9°C 47.1°F8.4°C 35% 2.9 mph SE4.7 kmh SE 2.9 mph4.7 kmh -338605.1 mb - 0.00 in0.0 mm 0.00 in0.0 mm
05:42 AM 76.6°F24.8°C 46.2°F7.9°C 34% 2.9 mph SE4.7 kmh SE 2.9 mph4.7 kmh -338605.1 mb - 0.00 in0.0 mm 0.00 in0.0 mm
05:47 AM 76.3°F24.6°C 47.3°F8.5°C 36% 2.9 mph SE4.7 kmh SE 4.0 mph6.4 kmh -338605.1 mb - 0.00 in0.0 mm 0.00 in0.0 mm
05:52 AM 75.9°F24.4°C 47.1°F8.4°C 36% 2.9 mph SE4.7 kmh SE 2.9 mph4.7 kmh -338605.1 mb - 0.00 in0.0 mm 0.00 in0.0 mm
05:57 AM 75.7°F24.3°C 48.4°F9.1°C 38% 2.9 mph SE4.7 kmh SE 4.0 mph6.4 kmh -338605.1 mb - 0.00 in0.0 mm 0.00 in0.0 mm
06:02 AM 75.7°F24.3°C 49.1°F9.5°C 39% 4.0 mph SE6.4 kmh SE 2.9 mph4.7 kmh -338605.1 mb - 0.00 in0.0 mm 0.00 in0.0 mm
06:07 AM 75.7°F24.3°C 49.1°F9.5°C 39% 4.0 mph SE6.4 kmh SE 4.0 mph6.4 kmh -338605.1 mb - 0.00 in0.0 mm 0.00 in0.0 mm
06:12 AM 75.7°F24.3°C 49.1°F9.5°C 39% 4.9 mph SSE7.9 kmh SSE 6.0 mph9.7 kmh -338605.1 mb - 0.00 in0.0 mm 0.00 in0.0 mm
06:17 AM 75.9°F24.4°C 49.1°F9.5°C 39% 4.0 mph WSW6.4 kmh WSW 2.0 mph3.2 kmh -338605.1 mb - 0.00 in0.0 mm 0.00 in0.0 mm
06:22 AM 76.5°F24.7°C 48.9°F9.4°C 38% 2.9 mph SW4.7 kmh SW 2.0 mph3.2 kmh -338605.1 mb - 0.00 in0.0 mm 0.00 in0.0 mm
06:27 AM 76.8°F24.9°C 49.3°F9.6°C 38% 2.9 mph WSW4.7 kmh WSW 0.9 mph1.4 kmh -338605.1 mb - 0.00 in0.0 mm 0.00 in0.0 mm
06:32 AM 77.7°F25.4°C 50.0°F10.0°C 38% 2.0 mph WNW3.2 kmh WNW 0.9 mph1.4 kmh -338605.1 mb - 0.00 in0.0 mm 0.00 in0.0 mm
06:37 AM 78.6°F25.9°C 49.5°F9.7°C 36% 0.9 mph NW1.4 kmh NW -- -338605.1 mb - 0.00 in0.0 mm 0.00 in0.0 mm
06:42 AM 79.0°F26.1°C 50.5°F10.3°C 37% Calm Calm 0.9 mph1.4 kmh -338605.1 mb - 0.00 in0.0 mm 0.00 in0.0 mm
06:47 AM 79.2°F26.2°C 49.8°F9.9°C 36% 0.9 mph WNW1.4 kmh WNW 2.0 mph3.2 kmh -338605.1 mb - 0.00 in0.0 mm 0.00 in0.0 mm
06:52 AM 79.2°F26.2°C 51.4°F10.8°C 38% 2.0 mph WNW3.2 kmh WNW 2.9 mph4.7 kmh -338605.1 mb - 0.00 in0.0 mm 0.00 in0.0 mm
06:57 AM 80.1°F26.7°C 50.7°F10.4°C 36% 2.0 mph W3.2 kmh W 2.0 mph3.2 kmh -338605.1 mb - 0.00 in0.0 mm 0.00 in0.0 mm
07:02 AM 80.1°F26.7°C 51.4°F10.8°C 37% 2.0 mph W3.2 kmh W 2.0 mph3.2 kmh -338605.1 mb - 0.00 in0.0 mm 0.00 in0.0 mm
07:07 AM 81.0°F27.2°C 51.4°F10.8°C 36% 2.0 mph WSW3.2 kmh WSW 2.9 mph4.7 kmh -338605.1 mb - 0.00 in0.0 mm 0.00 in0.0 mm
07:12 AM 81.1°F27.3°C 50.9°F10.5°C 35% 2.9 mph W4.7 kmh W 2.9 mph4.7 kmh -338605.1 mb - 0.00 in0.0 mm 0.00 in0.0 mm
07:17 AM 81.7°F27.6°C 51.4°F10.8°C 35% 2.0 mph S3.2 kmh S 2.0 mph3.2 kmh -338605.1 mb - 0.00 in0.0 mm 0.00 in0.0 mm
07:22 AM 82.0°F27.8°C 51.6°F10.9°C 35% 0.9 mph SSW1.4 kmh SSW 0.9 mph1.4 kmh -338605.1 mb - 0.00 in0.0 mm 0.00 in0.0 mm
07:27 AM 82.2°F27.9°C 51.1°F10.6°C 34% Calm Calm 0.9 mph1.4 kmh -338605.1 mb - 0.00 in0.0 mm 0.00 in0.0 mm
07:32 AM 82.9°F28.3°C 51.6°F10.9°C 34% 0.9 mph SSE1.4 kmh SSE 2.0 mph3.2 kmh -338605.1 mb - 0.00 in0.0 mm 0.00 in0.0 mm
07:37 AM 83.7°F28.7°C 51.4°F10.8°C 33% 2.0 mph E3.2 kmh E 2.9 mph4.7 kmh -338605.1 mb - 0.00 in0.0 mm 0.00 in0.0 mm
07:42 AM 83.8°F28.8°C 50.9°F10.5°C 32% 2.9 mph E4.7 kmh E 0.9 mph1.4 kmh -338605.1 mb - 0.00 in0.0 mm 0.00 in0.0 mm
07:47 AM 84.2°F29.0°C 51.1°F10.6°C 32% 2.0 mph E3.2 kmh E 0.9 mph1.4 kmh -338605.1 mb - 0.00 in0.0 mm 0.00 in0.0 mm
07:52 AM 84.7°F29.3°C 50.7°F10.4°C 31% 0.9 mph E1.4 kmh E 0.9 mph1.4 kmh -338605.1 mb - 0.00 in0.0 mm 0.00 in0.0 mm
07:57 AM 85.3°F29.6°C 50.4°F10.2°C 30% 0.9 mph E1.4 kmh E 0.9 mph1.4 kmh -338605.1 mb - 0.00 in0.0 mm 0.00 in0.0 mm
08:02 AM 86.0°F30.0°C 50.9°F10.5°C 30% 0.9 mph E1.4 kmh E 2.9 mph4.7 kmh -338605.1 mb - 0.00 in0.0 mm 0.00 in0.0 mm
08:07 AM 86.2°F30.1°C 50.2°F10.1°C 29% 2.0 mph E3.2 kmh E 2.0 mph3.2 kmh -338605.1 mb - 0.00 in0.0 mm 0.00 in0.0 mm
08:12 AM 87.1°F30.6°C 50.0°F10.0°C 28% 4.9 mph W7.9 kmh W 6.0 mph9.7 kmh -338605.1 mb - 0.00 in0.0 mm 0.00 in0.0 mm
08:17 AM 87.1°F30.6°C 49.1°F9.5°C 27% 6.0 mph W9.7 kmh W 8.1 mph13.0 kmh -338605.1 mb - 0.00 in0.0 mm 0.00 in0.0 mm
08:22 AM 87.3°F30.7°C 49.3°F9.6°C 27% 6.0 mph WNW9.7 kmh WNW 4.9 mph7.9 kmh -338605.1 mb - 0.00 in0.0 mm 0.00 in0.0 mm
08:27 AM 87.4°F30.8°C 49.3°F9.6°C 27% 4.9 mph WNW7.9 kmh WNW 2.9 mph4.7 kmh -338605.1 mb - 0.00 in0.0 mm 0.00 in0.0 mm
08:32 AM 87.6°F30.9°C 48.6°F9.2°C 26% 4.9 mph WNW7.9 kmh WNW 2.9 mph4.7 kmh -338605.1 mb - 0.00 in0.0 mm 0.00 in0.0 mm
08:37 AM 88.0°F31.1°C 48.7°F9.3°C 26% 4.0 mph WSW6.4 kmh WSW 6.0 mph9.7 kmh -338605.1 mb - 0.00 in0.0 mm 0.00 in0.0 mm
08:42 AM 88.0°F31.1°C 48.7°F9.3°C 26% 4.9 mph W7.9 kmh W 4.0 mph6.4 kmh -338605.1 mb - 0.00 in0.0 mm 0.00 in0.0 mm
08:47 AM 88.2°F31.2°C 48.9°F9.4°C 26% 4.0 mph W6.4 kmh W 4.9 mph7.9 kmh -338605.1 mb - 0.00 in0.0 mm 0.00 in0.0 mm
08:52 AM 88.5°F31.4°C 48.2°F9.0°C 25% 4.0 mph WNW6.4 kmh WNW 2.0 mph3.2 kmh -338605.1 mb - 0.00 in0.0 mm 0.00 in0.0 mm
08:57 AM 88.9°F31.6°C 48.6°F9.2°C 25% 4.0 mph W6.4 kmh W 2.9 mph4.7 kmh -338605.1 mb - 0.00 in0.0 mm 0.00 in0.0 mm
09:02 AM 89.2°F31.8°C 47.7°F8.7°C 24% 2.9 mph WNW4.7 kmh WNW 4.0 mph6.4 kmh -338605.1 mb - 0.00 in0.0 mm 0.00 in0.0 mm
09:07 AM 89.4°F31.9°C 48.9°F9.4°C 25% 2.0 mph WNW3.2 kmh WNW 0.9 mph1.4 kmh -338605.1 mb - 0.00 in0.0 mm 0.00 in0.0 mm
09:12 AM 89.8°F32.1°C 49.3°F9.6°C 25% 2.0 mph WNW3.2 kmh WNW -- -338605.1 mb - 0.00 in0.0 mm 0.00 in0.0 mm
09:17 AM 90.9°F32.7°C 49.1°F9.5°C 24% 0.9 mph WNW1.4 kmh WNW 0.9 mph1.4 kmh -338605.1 mb - 0.00 in0.0 mm 0.00 in0.0 mm
09:22 AM 91.0°F32.8°C 48.0°F8.9°C 23% 2.0 mph WNW3.2 kmh WNW 0.9 mph1.4 kmh -338605.1 mb - 0.00 in0.0 mm 0.00 in0.0 mm
09:27 AM 91.0°F32.8°C 48.0°F8.9°C 23% 2.0 mph WNW3.2 kmh WNW -- -338605.1 mb - 0.00 in0.0 mm 0.00 in0.0 mm
09:32 AM 91.0°F32.8°C 49.3°F9.6°C 24% 0.9 mph WNW1.4 kmh WNW 2.9 mph4.7 kmh -338605.1 mb - 0.00 in0.0 mm 0.00 in0.0 mm
09:37 AM 91.4°F33.0°C 49.5°F9.7°C 24% 2.0 mph NW3.2 kmh NW 2.0 mph3.2 kmh -338605.1 mb - 0.00 in0.0 mm 0.00 in0.0 mm
09:42 AM 92.3°F33.5°C 49.1°F9.5°C 23% 2.0 mph NW3.2 kmh NW 4.0 mph6.4 kmh -338605.1 mb - 0.00 in0.0 mm 0.00 in0.0 mm
09:47 AM 92.5°F33.6°C 48.0°F8.9°C 22% 2.0 mph NW3.2 kmh NW 4.0 mph6.4 kmh -338605.1 mb - 0.00 in0.0 mm 0.00 in0.0 mm
09:52 AM 91.9°F33.3°C 47.7°F8.7°C 22% 2.9 mph NW4.7 kmh NW 0.9 mph1.4 kmh -338605.1 mb - 0.00 in0.0 mm 0.00 in0.0 mm
09:57 AM 92.3°F33.5°C 46.8°F8.2°C 21% 2.0 mph NW3.2 kmh NW -- -338605.1 mb - 0.00 in0.0 mm 0.00 in0.0 mm
10:02 AM 93.6°F34.2°C 46.4°F8.0°C 20% 0.9 mph NW1.4 kmh NW 0.9 mph1.4 kmh -338605.1 mb - 0.00 in0.0 mm 0.00 in0.0 mm
10:07 AM 93.0°F33.9°C 47.3°F8.5°C 21% 0.9 mph NW1.4 kmh NW 0.9 mph1.4 kmh -338605.1 mb - 0.00 in0.0 mm 0.00 in0.0 mm
10:12 AM 93.7°F34.3°C 49.1°F9.5°C 22% 0.9 mph NW1.4 kmh NW 0.9 mph1.4 kmh -338605.1 mb - 0.00 in0.0 mm 0.00 in0.0 mm
10:17 AM 94.3°F34.6°C 48.4°F9.1°C 21% 0.9 mph NW1.4 kmh NW 0.9 mph1.4 kmh -338605.1 mb - 0.00 in0.0 mm 0.00 in0.0 mm
10:22 AM 94.5°F34.7°C 47.1°F8.4°C 20% 2.0 mph WNW3.2 kmh WNW 2.9 mph4.7 kmh -338605.1 mb - 0.00 in0.0 mm 0.00 in0.0 mm
10:27 AM 93.9°F34.4°C 46.8°F8.2°C 20% 2.0 mph WNW3.2 kmh WNW 2.9 mph4.7 kmh -338605.1 mb - 0.00 in0.0 mm 0.00 in0.0 mm
10:32 AM 93.9°F34.4°C 46.8°F8.2°C 20% 2.0 mph WNW3.2 kmh WNW 2.0 mph3.2 kmh -338605.1 mb - 0.00 in0.0 mm 0.00 in0.0 mm
10:37 AM 95.4°F35.2°C 48.0°F8.9°C 20% 2.0 mph NW3.2 kmh NW 2.0 mph3.2 kmh -338605.1 mb - 0.00 in0.0 mm 0.00 in0.0 mm
10:42 AM 95.7°F35.4°C 48.2°F9.0°C 20% 2.0 mph NW3.2 kmh NW -- -338605.1 mb - 0.00 in0.0 mm 0.00 in0.0 mm
10:47 AM 96.6°F35.9°C 47.7°F8.7°C 19% 0.9 mph NW1.4 kmh NW -- -338605.1 mb - 0.00 in0.0 mm 0.00 in0.0 mm
10:52 AM 97.2°F36.2°C 48.0°F8.9°C 19% 0.9 mph NW1.4 kmh NW 2.9 mph4.7 kmh -338605.1 mb - 0.00 in0.0 mm 0.00 in0.0 mm
10:57 AM 97.3°F36.3°C 48.2°F9.0°C 19% 0.9 mph SE1.4 kmh SE 0.9 mph1.4 kmh -338605.1 mb - 0.00 in0.0 mm 0.00 in0.0 mm
11:02 AM 98.1°F36.7°C 48.7°F9.3°C 19% 2.0 mph SE3.2 kmh SE 2.9 mph4.7 kmh -338605.1 mb - 0.00 in0.0 mm 0.00 in0.0 mm
11:07 AM 98.8°F37.1°C 49.3°F9.6°C 19% 2.9 mph SE4.7 kmh SE 2.9 mph4.7 kmh -338605.1 mb - 0.00 in0.0 mm 0.00 in0.0 mm
11:12 AM 99.3°F37.4°C 48.4°F9.1°C 18% 4.0 mph E6.4 kmh E 4.9 mph7.9 kmh -338605.1 mb - 0.00 in0.0 mm 0.00 in0.0 mm
11:17 AM 99.5°F37.5°C 48.6°F9.2°C 18% 2.9 mph E4.7 kmh E 6.0 mph9.7 kmh -338605.1 mb - 0.00 in0.0 mm 0.00 in0.0 mm
11:22 AM 99.7°F37.6°C 47.1°F8.4°C 17% 2.0 mph E3.2 kmh E 2.9 mph4.7 kmh -338605.1 mb - 0.00 in0.0 mm 0.00 in0.0 mm
11:27 AM 99.7°F37.6°C 48.6°F9.2°C 18% 2.0 mph E3.2 kmh E 6.0 mph9.7 kmh -338605.1 mb - 0.00 in0.0 mm 0.00 in0.0 mm
11:32 AM 99.9°F37.7°C 48.7°F9.3°C 18% 4.0 mph ESE6.4 kmh ESE 4.0 mph6.4 kmh -338605.1 mb - 0.00 in0.0 mm 0.00 in0.0 mm
11:37 AM 100.6°F38.1°C 47.8°F8.8°C 17% 4.0 mph E6.4 kmh E 0.9 mph1.4 kmh -338605.1 mb - 0.00 in0.0 mm 0.00 in0.0 mm
11:42 AM 100.0°F37.8°C 48.9°F9.4°C 18% 2.9 mph ESE4.7 kmh ESE 2.9 mph4.7 kmh -338605.1 mb - 0.00 in0.0 mm 0.00 in0.0 mm
11:47 AM 100.8°F38.2°C 48.0°F8.9°C 17% 2.0 mph E3.2 kmh E 2.0 mph3.2 kmh -338605.1 mb - 0.00 in0.0 mm 0.00 in0.0 mm
11:52 AM 100.8°F38.2°C 48.0°F8.9°C 17% 2.0 mph E3.2 kmh E 2.0 mph3.2 kmh -338605.1 mb - 0.00 in0.0 mm 0.00 in0.0 mm
11:57 AM 101.1°F38.4°C 48.2°F9.0°C 17% 2.0 mph ESE3.2 kmh ESE 4.9 mph7.9 kmh -338605.1 mb - 0.00 in0.0 mm 0.00 in0.0 mm
12:02 PM 101.7°F38.7°C 48.7°F9.3°C 17% 4.0 mph SE6.4 kmh SE 2.0 mph3.2 kmh -338605.1 mb - 0.00 in0.0 mm 0.00 in0.0 mm
12:07 PM 101.5°F38.6°C 48.6°F9.2°C 17% 2.9 mph SE4.7 kmh SE 8.9 mph14.3 kmh -338605.1 mb - 0.00 in0.0 mm 0.00 in0.0 mm
12:12 PM 100.9°F38.3°C 49.6°F9.8°C 18% 2.9 mph WSW4.7 kmh WSW 8.1 mph13.0 kmh -338605.1 mb - 0.00 in0.0 mm 0.00 in0.0 mm
12:17 PM 101.3°F38.5°C 48.4°F9.1°C 17% 6.0 mph SE9.7 kmh SE 2.9 mph4.7 kmh -338605.1 mb - 0.00 in0.0 mm 0.00 in0.0 mm
12:22 PM 101.7°F38.7°C 47.1°F8.4°C 16% 6.0 mph SE9.7 kmh SE 10.1 mph16.3 kmh -338605.1 mb - 0.00 in0.0 mm 0.00 in0.0 mm
12:27 PM 102.0°F38.9°C 47.3°F8.5°C 16% 6.9 mph SE11.1 kmh SE 2.0 mph3.2 kmh -338605.1 mb - 0.00 in0.0 mm 0.00 in0.0 mm
12:32 PM 102.6°F39.2°C 46.0°F7.8°C 15% 6.9 mph S11.1 kmh S 2.9 mph4.7 kmh -338605.1 mb - 0.00 in0.0 mm 0.00 in0.0 mm
12:37 PM 102.4°F39.1°C 45.9°F7.7°C 15% 6.0 mph S9.7 kmh S 4.9 mph7.9 kmh -338605.1 mb - 0.00 in0.0 mm 0.00 in0.0 mm
12:42 PM 102.4°F39.1°C 45.9°F7.7°C 15% 8.1 mph S13.0 kmh S 12.1 mph19.5 kmh -338605.1 mb - 0.00 in0.0 mm 0.00 in0.0 mm
12:47 PM 102.4°F39.1°C 45.9°F7.7°C 15% 8.1 mph S13.0 kmh S 10.1 mph16.3 kmh -338605.1 mb - 0.00 in0.0 mm 0.00 in0.0 mm
12:52 PM 102.7°F39.3°C 46.2°F7.9°C 15% 8.1 mph S13.0 kmh S 2.9 mph4.7 kmh -338605.1 mb - 0.00 in0.0 mm 0.00 in0.0 mm
12:57 PM 102.9°F39.4°C 46.4°F8.0°C 15% 6.9 mph S11.1 kmh S 4.9 mph7.9 kmh -338605.1 mb - 0.00 in0.0 mm 0.00 in0.0 mm
01:02 PM 103.5°F39.7°C 45.0°F7.2°C 14% 6.9 mph SE11.1 kmh SE 12.1 mph19.5 kmh -338605.1 mb - 0.00 in0.0 mm 0.00 in0.0 mm
01:07 PM 103.6°F39.8°C 45.1°F7.3°C 14% 8.9 mph SW14.3 kmh SW 10.1 mph16.3 kmh -338605.1 mb - 0.00 in0.0 mm 0.00 in0.0 mm
01:12 PM 103.8°F39.9°C 45.3°F7.4°C 14% 8.9 mph SW14.3 kmh SW 2.9 mph4.7 kmh -338605.1 mb - 0.00 in0.0 mm 0.00 in0.0 mm
01:17 PM 104.0°F40.0°C 45.3°F7.4°C 14% 10.1 mph SSW16.3 kmh SSW 12.1 mph19.5 kmh -338605.1 mb - 0.00 in0.0 mm 0.00 in0.0 mm
01:22 PM 104.0°F40.0°C 45.3°F7.4°C 14% 8.9 mph S14.3 kmh S 14.1 mph22.7 kmh -338605.1 mb - 0.00 in0.0 mm 0.00 in0.0 mm
01:27 PM 104.2°F40.1°C 45.5°F7.5°C 14% 8.1 mph SW13.0 kmh SW 14.1 mph22.7 kmh -338605.1 mb - 0.00 in0.0 mm 0.00 in0.0 mm
01:32 PM 104.2°F40.1°C 45.5°F7.5°C 14% 8.9 mph S14.3 kmh S 6.0 mph9.7 kmh -338605.1 mb - 0.00 in0.0 mm 0.00 in0.0 mm
01:37 PM 104.2°F40.1°C 45.5°F7.5°C 14% 10.1 mph S16.3 kmh S 21.9 mph35.2 kmh -338605.1 mb - 0.00 in0.0 mm 0.00 in0.0 mm
01:42 PM 104.0°F40.0°C 45.3°F7.4°C 14% 11.0 mph S17.7 kmh S 11.0 mph17.7 kmh -338605.1 mb - 0.00 in0.0 mm 0.00 in0.0 mm
01:47 PM 103.6°F39.8°C 45.1°F7.3°C 14% 12.1 mph S19.5 kmh S 10.1 mph16.3 kmh -338605.1 mb - 0.00 in0.0 mm 0.00 in0.0 mm
01:52 PM 103.6°F39.8°C 45.1°F7.3°C 14% 10.1 mph S16.3 kmh S 11.0 mph17.7 kmh -338605.1 mb - 0.00 in0.0 mm 0.00 in0.0 mm
01:57 PM 104.0°F40.0°C 47.3°F8.5°C 15% 10.1 mph S16.3 kmh S 8.1 mph13.0 kmh -338605.1 mb - 0.00 in0.0 mm 0.00 in0.0 mm
02:02 PM 104.2°F40.1°C 47.3°F8.5°C 15% 12.1 mph SW19.5 kmh SW 8.9 mph14.3 kmh -338605.1 mb - 0.00 in0.0 mm 0.00 in0.0 mm
02:07 PM 104.2°F40.1°C 47.3°F8.5°C 15% 11.0 mph SSW17.7 kmh SSW 8.1 mph13.0 kmh -338605.1 mb - 0.00 in0.0 mm 0.00 in0.0 mm
02:12 PM 103.8°F39.9°C 47.1°F8.4°C 15% 11.0 mph S17.7 kmh S 25.1 mph40.4 kmh -338605.1 mb - 0.00 in0.0 mm 0.00 in0.0 mm
02:17 PM 103.8°F39.9°C 47.1°F8.4°C 15% 11.0 mph SW17.7 kmh SW 6.9 mph11.1 kmh -338605.1 mb - 0.00 in0.0 mm 0.00 in0.0 mm
02:22 PM 103.6°F39.8°C 45.1°F7.3°C 14% 14.1 mph S22.7 kmh S 13.0 mph20.9 kmh -338605.1 mb - 0.00 in0.0 mm 0.00 in0.0 mm
02:27 PM 103.6°F39.8°C 45.1°F7.3°C 14% 15.0 mph SSW24.1 kmh SSW 11.0 mph17.7 kmh -338605.1 mb - 0.00 in0.0 mm 0.00 in0.0 mm
02:32 PM 104.2°F40.1°C 45.5°F7.5°C 14% 12.1 mph S19.5 kmh S 16.1 mph25.9 kmh -338605.1 mb - 0.00 in0.0 mm 0.00 in0.0 mm
02:37 PM 104.4°F40.2°C 43.7°F6.5°C 13% 10.1 mph SE16.3 kmh SE 4.9 mph7.9 kmh -338605.1 mb - 0.00 in0.0 mm 0.00 in0.0 mm
02:42 PM 104.5°F40.3°C 43.9°F6.6°C 13% 12.1 mph S19.5 kmh S 4.9 mph7.9 kmh -338605.1 mb - 0.00 in0.0 mm 0.00 in0.0 mm
02:47 PM 104.7°F40.4°C 44.1°F6.7°C 13% 13.0 mph S20.9 kmh S 16.1 mph25.9 kmh -338605.1 mb - 0.00 in0.0 mm 0.00 in0.0 mm
02:52 PM 104.5°F40.3°C 43.9°F6.6°C 13% 13.0 mph SE20.9 kmh SE 6.9 mph11.1 kmh -338605.1 mb - 0.00 in0.0 mm 0.00 in0.0 mm
02:57 PM 104.7°F40.4°C 46.0°F7.8°C 14% 11.0 mph SSE17.7 kmh SSE 4.0 mph6.4 kmh -338605.1 mb - 0.00 in0.0 mm 0.00 in0.0 mm
03:02 PM 104.9°F40.5°C 44.1°F6.7°C 13% 11.0 mph S17.7 kmh S 16.1 mph25.9 kmh -338605.1 mb - 0.00 in0.0 mm 0.00 in0.0 mm
03:07 PM 104.5°F40.3°C 43.9°F6.6°C 13% 13.0 mph SSW20.9 kmh SSW 13.0 mph20.9 kmh -338605.1 mb - 0.00 in0.0 mm 0.00 in0.0 mm
03:12 PM 104.9°F40.5°C 42.1°F5.6°C 12% 13.0 mph SSE20.9 kmh SSE 4.9 mph7.9 kmh -338605.1 mb - 0.00 in0.0 mm 0.00 in0.0 mm
03:17 PM 105.1°F40.6°C 42.3°F5.7°C 12% 11.0 mph SW17.7 kmh SW 4.0 mph6.4 kmh -338605.1 mb - 0.00 in0.0 mm 0.00 in0.0 mm
03:22 PM 105.3°F40.7°C 42.3°F5.7°C 12% 10.1 mph SSE16.3 kmh SSE 17.9 mph28.8 kmh -338605.1 mb - 0.00 in0.0 mm 0.00 in0.0 mm
03:27 PM 104.5°F40.3°C 41.7°F5.4°C 12% 12.1 mph SE19.5 kmh SE 6.9 mph11.1 kmh -338605.1 mb - 0.00 in0.0 mm 0.00 in0.0 mm
03:32 PM 104.9°F40.5°C 39.7°F4.3°C 11% 12.1 mph SE19.5 kmh SE 8.1 mph13.0 kmh -338605.1 mb - 0.00 in0.0 mm 0.00 in0.0 mm
03:37 PM 105.3°F40.7°C 40.1°F4.5°C 11% 11.0 mph SW17.7 kmh SW 19.9 mph32.0 kmh -338605.1 mb - 0.00 in0.0 mm 0.00 in0.0 mm
03:42 PM 105.4°F40.8°C 40.3°F4.6°C 11% 12.1 mph SW19.5 kmh SW 13.0 mph20.9 kmh -338605.1 mb - 0.00 in0.0 mm 0.00 in0.0 mm
03:47 PM 105.3°F40.7°C 40.1°F4.5°C 11% 12.1 mph SSE19.5 kmh SSE 8.9 mph14.3 kmh -338605.1 mb - 0.00 in0.0 mm 0.00 in0.0 mm
03:52 PM 104.7°F40.4°C 39.7°F4.3°C 11% 14.1 mph S22.7 kmh S 19.0 mph30.6 kmh -338605.1 mb - 0.00 in0.0 mm 0.00 in0.0 mm
03:57 PM 104.7°F40.4°C 39.7°F4.3°C 11% 13.0 mph SE20.9 kmh SE 12.1 mph19.5 kmh -338605.1 mb - 0.00 in0.0 mm 0.00 in0.0 mm
04:02 PM 104.4°F40.2°C 39.4°F4.1°C 11% 15.0 mph SSE24.1 kmh SSE 19.0 mph30.6 kmh -338605.1 mb - 0.00 in0.0 mm 0.00 in0.0 mm
04:07 PM 104.4°F40.2°C 39.4°F4.1°C 11% 16.1 mph SSW25.9 kmh SSW 21.9 mph35.2 kmh -338605.1 mb - 0.00 in0.0 mm 0.00 in0.0 mm
04:12 PM 104.4°F40.2°C 39.4°F4.1°C 11% 14.1 mph SSE22.7 kmh SSE 14.1 mph22.7 kmh -338605.1 mb - 0.00 in0.0 mm 0.00 in0.0 mm
04:17 PM 104.4°F40.2°C 39.4°F4.1°C 11% 15.0 mph S24.1 kmh S 17.9 mph28.8 kmh -338605.1 mb - 0.00 in0.0 mm 0.00 in0.0 mm
04:22 PM 104.2°F40.1°C 39.2°F4.0°C 11% 16.1 mph SSE25.9 kmh SSE 12.1 mph19.5 kmh -338605.1 mb - 0.00 in0.0 mm 0.00 in0.0 mm
04:27 PM 104.4°F40.2°C 39.4°F4.1°C 11% 14.1 mph SSW22.7 kmh SSW 12.1 mph19.5 kmh -338605.1 mb - 0.00 in0.0 mm 0.00 in0.0 mm
04:32 PM 104.4°F40.2°C 39.4°F4.1°C 11% 16.1 mph SSW25.9 kmh SSW 17.0 mph27.4 kmh -338605.1 mb - 0.00 in0.0 mm 0.00 in0.0 mm
04:37 PM 103.8°F39.9°C 39.0°F3.9°C 11% 19.0 mph SSW30.6 kmh SSW 17.0 mph27.4 kmh -338605.1 mb - 0.00 in0.0 mm 0.00 in0.0 mm
04:42 PM 103.5°F39.7°C 41.0°F5.0°C 12% 16.1 mph S25.9 kmh S 13.0 mph20.9 kmh -338605.1 mb - 0.00 in0.0 mm 0.00 in0.0 mm
04:47 PM 103.3°F39.6°C 40.8°F4.9°C 12% 17.0 mph SSW27.4 kmh SSW 19.0 mph30.6 kmh -338605.1 mb - 0.00 in0.0 mm 0.00 in0.0 mm
04:52 PM 103.3°F39.6°C 43.0°F6.1°C 13% 19.0 mph S30.6 kmh S 27.1 mph43.6 kmh -338605.1 mb - 0.00 in0.0 mm 0.00 in0.0 mm
04:57 PM 103.3°F39.6°C 43.0°F6.1°C 13% 17.9 mph S28.8 kmh S 23.0 mph37.0 kmh -338605.1 mb - 0.00 in0.0 mm 0.00 in0.0 mm
05:02 PM 103.3°F39.6°C 43.0°F6.1°C 13% 17.0 mph S27.4 kmh S 23.0 mph37.0 kmh -338605.1 mb - 0.00 in0.0 mm 0.00 in0.0 mm
05:07 PM 103.1°F39.5°C 42.8°F6.0°C 13% 17.9 mph SSW28.8 kmh SSW 15.0 mph24.1 kmh -338605.1 mb - 0.00 in0.0 mm 0.00 in0.0 mm
05:12 PM 102.9°F39.4°C 42.6°F5.9°C 13% 17.0 mph SSE27.4 kmh SSE 15.0 mph24.1 kmh -338605.1 mb - 0.00 in0.0 mm 0.00 in0.0 mm
05:17 PM 102.6°F39.2°C 40.3°F4.6°C 12% 16.1 mph SSW25.9 kmh SSW 15.0 mph24.1 kmh -338605.1 mb - 0.00 in0.0 mm 0.00 in0.0 mm
05:22 PM 102.6°F39.2°C 40.3°F4.6°C 12% 16.1 mph SSW25.9 kmh SSW 6.9 mph11.1 kmh -338605.1 mb - 0.00 in0.0 mm 0.00 in0.0 mm
05:27 PM 102.6°F39.2°C 42.3°F5.7°C 13% 16.1 mph SSW25.9 kmh SSW 13.0 mph20.9 kmh -338605.1 mb - 0.00 in0.0 mm 0.00 in0.0 mm
05:32 PM 102.4°F39.1°C 42.3°F5.7°C 13% 17.9 mph SSW28.8 kmh SSW 27.1 mph43.6 kmh -338605.1 mb - 0.00 in0.0 mm 0.00 in0.0 mm
05:37 PM 101.8°F38.8°C 41.7°F5.4°C 13% 19.0 mph S30.6 kmh S 23.9 mph38.5 kmh -338605.1 mb - 0.00 in0.0 mm 0.00 in0.0 mm
05:42 PM 101.8°F38.8°C 41.7°F5.4°C 13% 19.0 mph S30.6 kmh S 14.1 mph22.7 kmh -338605.1 mb - 0.00 in0.0 mm 0.00 in0.0 mm
05:47 PM 102.0°F38.9°C 41.9°F5.5°C 13% 17.0 mph SSW27.4 kmh SSW 6.9 mph11.1 kmh -338605.1 mb - 0.00 in0.0 mm 0.00 in0.0 mm
05:52 PM 102.0°F38.9°C 39.9°F4.4°C 12% 13.0 mph S20.9 kmh S 16.1 mph25.9 kmh -338605.1 mb - 0.00 in0.0 mm 0.00 in0.0 mm
05:57 PM 102.0°F38.9°C 43.9°F6.6°C 14% 14.1 mph SW22.7 kmh SW 17.9 mph28.8 kmh -338605.1 mb - 0.00 in0.0 mm 0.00 in0.0 mm
06:02 PM 102.0°F38.9°C 43.9°F6.6°C 14% 15.0 mph S24.1 kmh S 14.1 mph22.7 kmh -338605.1 mb - 0.00 in0.0 mm 0.00 in0.0 mm
06:07 PM 101.8°F38.8°C 43.7°F6.5°C 14% 15.0 mph SW24.1 kmh SW 13.0 mph20.9 kmh -338605.1 mb - 0.00 in0.0 mm 0.00 in0.0 mm
06:12 PM 101.7°F38.7°C 45.3°F7.4°C 15% 14.1 mph SW22.7 kmh SW 15.0 mph24.1 kmh -338605.1 mb - 0.00 in0.0 mm 0.00 in0.0 mm
06:17 PM 101.8°F38.8°C 47.3°F8.5°C 16% 15.0 mph SW24.1 kmh SW 17.9 mph28.8 kmh -338605.1 mb - 0.00 in0.0 mm 0.00 in0.0 mm
06:22 PM 101.3°F38.5°C 46.8°F8.2°C 16% 17.0 mph S27.4 kmh S 12.1 mph19.5 kmh -338605.1 mb - 0.00 in0.0 mm 0.00 in0.0 mm
06:27 PM 101.1°F38.4°C 46.6°F8.1°C 16% 14.1 mph SW22.7 kmh SW 8.1 mph13.0 kmh -338605.1 mb - 0.00 in0.0 mm 0.00 in0.0 mm
06:32 PM 100.9°F38.3°C 46.6°F8.1°C 16% 13.0 mph WSW20.9 kmh WSW 23.0 mph37.0 kmh -338605.1 mb - 0.00 in0.0 mm 0.00 in0.0 mm
06:37 PM 100.8°F38.2°C 46.4°F8.0°C 16% 14.1 mph WSW22.7 kmh WSW 21.9 mph35.2 kmh -338605.1 mb - 0.00 in0.0 mm 0.00 in0.0 mm
06:42 PM 100.6°F38.1°C 47.8°F8.8°C 17% 14.1 mph WSW22.7 kmh WSW 10.1 mph16.3 kmh -338605.1 mb - 0.00 in0.0 mm 0.00 in0.0 mm
06:47 PM 100.6°F38.1°C 46.2°F7.9°C 16% 13.0 mph SW20.9 kmh SW 15.0 mph24.1 kmh -338605.1 mb - 0.00 in0.0 mm 0.00 in0.0 mm
06:52 PM 100.2°F37.9°C 45.9°F7.7°C 16% 12.1 mph WSW19.5 kmh WSW 13.0 mph20.9 kmh -338605.1 mb - 0.00 in0.0 mm 0.00 in0.0 mm
06:57 PM 100.0°F37.8°C 45.9°F7.7°C 16% 11.0 mph WSW17.7 kmh WSW 15.0 mph24.1 kmh -338605.1 mb - 0.00 in0.0 mm 0.00 in0.0 mm
07:02 PM 99.7°F37.6°C 45.5°F7.5°C 16% 12.1 mph WSW19.5 kmh WSW 10.1 mph16.3 kmh -338605.1 mb - 0.00 in0.0 mm 0.00 in0.0 mm
07:07 PM 99.3°F37.4°C 45.1°F7.3°C 16% 12.1 mph WSW19.5 kmh WSW 16.1 mph25.9 kmh -338605.1 mb - 0.00 in0.0 mm 0.00 in0.0 mm
07:12 PM 98.8°F37.1°C 46.4°F8.0°C 17% 11.0 mph WSW17.7 kmh WSW 4.0 mph6.4 kmh -338605.1 mb - 0.00 in0.0 mm 0.00 in0.0 mm
07:17 PM 98.6°F37.0°C 44.6°F7.0°C 16% 11.0 mph W17.7 kmh W 8.1 mph13.0 kmh -338605.1 mb - 0.00 in0.0 mm 0.00 in0.0 mm
07:22 PM 98.1°F36.7°C 45.9°F7.7°C 17% 11.0 mph WSW17.7 kmh WSW 12.1 mph19.5 kmh -338605.1 mb - 0.00 in0.0 mm 0.00 in0.0 mm
07:27 PM 97.7°F36.5°C 43.9°F6.6°C 16% 10.1 mph WSW16.3 kmh WSW 12.1 mph19.5 kmh -338605.1 mb - 0.00 in0.0 mm 0.00 in0.0 mm
07:32 PM 97.3°F36.3°C 45.3°F7.4°C 17% 10.1 mph WNW16.3 kmh WNW 2.9 mph4.7 kmh -338605.1 mb - 0.00 in0.0 mm 0.00 in0.0 mm
07:37 PM 96.6°F35.9°C 46.2°F7.9°C 18% 8.9 mph NW14.3 kmh NW 8.1 mph13.0 kmh -338605.1 mb - 0.00 in0.0 mm 0.00 in0.0 mm
07:42 PM 96.1°F35.6°C 47.1°F8.4°C 19% 6.0 mph NW9.7 kmh NW 2.9 mph4.7 kmh -338605.1 mb - 0.00 in0.0 mm 0.00 in0.0 mm
07:47 PM 95.5°F35.3°C 46.8°F8.2°C 19% 4.9 mph NW7.9 kmh NW 6.9 mph11.1 kmh -338605.1 mb - 0.00 in0.0 mm 0.00 in0.0 mm
07:52 PM 95.2°F35.1°C 46.4°F8.0°C 19% 4.9 mph N7.9 kmh N 6.0 mph9.7 kmh -338605.1 mb - 0.00 in0.0 mm 0.00 in0.0 mm
07:57 PM 94.8°F34.9°C 46.2°F7.9°C 19% 6.9 mph NNW11.1 kmh NNW 4.9 mph7.9 kmh -338605.1 mb - 0.00 in0.0 mm 0.00 in0.0 mm
08:02 PM 94.6°F34.8°C 47.3°F8.5°C 20% 6.0 mph NW9.7 kmh NW 4.9 mph7.9 kmh -338605.1 mb - 0.00 in0.0 mm 0.00 in0.0 mm
08:07 PM 94.3°F34.6°C 47.1°F8.4°C 20% 4.0 mph NW6.4 kmh NW 2.9 mph4.7 kmh -338605.1 mb - 0.00 in0.0 mm 0.00 in0.0 mm
08:12 PM 93.9°F34.4°C 46.8°F8.2°C 20% 2.9 mph NW4.7 kmh NW 2.0 mph3.2 kmh -338605.1 mb - 0.00 in0.0 mm 0.00 in0.0 mm
08:17 PM 93.7°F34.3°C 46.6°F8.1°C 20% 2.0 mph NW3.2 kmh NW 0.9 mph1.4 kmh -338605.1 mb - 0.00 in0.0 mm 0.00 in0.0 mm
08:22 PM 93.4°F34.1°C 46.4°F8.0°C 20% 2.0 mph NW3.2 kmh NW 2.9 mph4.7 kmh -338605.1 mb - 0.00 in0.0 mm 0.00 in0.0 mm
08:27 PM 93.0°F33.9°C 47.3°F8.5°C 21% 2.0 mph NW3.2 kmh NW 2.0 mph3.2 kmh -338605.1 mb - 0.00 in0.0 mm 0.00 in0.0 mm
08:32 PM 92.8°F33.8°C 47.1°F8.4°C 21% 2.9 mph WSW4.7 kmh WSW -- -338605.1 mb - 0.00 in0.0 mm 0.00 in0.0 mm
08:37 PM 92.7°F33.7°C 46.9°F8.3°C 21% 2.9 mph SW4.7 kmh SW 6.0 mph9.7 kmh -338605.1 mb - 0.00 in0.0 mm 0.00 in0.0 mm
08:42 PM 92.3°F33.5°C 46.8°F8.2°C 21% 2.9 mph SSW4.7 kmh SSW 2.0 mph3.2 kmh -338605.1 mb - 0.00 in0.0 mm 0.00 in0.0 mm
08:47 PM 91.9°F33.3°C 46.4°F8.0°C 21% 2.9 mph SW4.7 kmh SW 4.0 mph6.4 kmh -338605.1 mb - 0.00 in0.0 mm 0.00 in0.0 mm
08:52 PM 91.6°F33.1°C 47.3°F8.5°C 22% 4.0 mph S6.4 kmh S 4.9 mph7.9 kmh -338605.1 mb - 0.00 in0.0 mm 0.00 in0.0 mm
08:57 PM 91.2°F32.9°C 47.1°F8.4°C 22% 4.0 mph SSW6.4 kmh SSW 6.0 mph9.7 kmh -338605.1 mb - 0.00 in0.0 mm 0.00 in0.0 mm
09:02 PM 90.9°F32.7°C 46.8°F8.2°C 22% 4.9 mph S7.9 kmh S 6.9 mph11.1 kmh -338605.1 mb - 0.00 in0.0 mm 0.00 in0.0 mm
09:07 PM 90.3°F32.4°C 47.5°F8.6°C 23% 6.0 mph SSW9.7 kmh SSW 6.0 mph9.7 kmh -338605.1 mb - 0.00 in0.0 mm 0.00 in0.0 mm
09:12 PM 90.1°F32.3°C 47.3°F8.5°C 23% 4.9 mph SW7.9 kmh SW 2.9 mph4.7 kmh -338605.1 mb - 0.00 in0.0 mm 0.00 in0.0 mm
09:17 PM 90.0°F32.2°C 47.1°F8.4°C 23% 4.9 mph SSW7.9 kmh SSW 6.9 mph11.1 kmh -338605.1 mb - 0.00 in0.0 mm 0.00 in0.0 mm
09:22 PM 89.6°F32.0°C 48.0°F8.9°C 24% 4.0 mph SW6.4 kmh SW 4.9 mph7.9 kmh -338605.1 mb - 0.00 in0.0 mm 0.00 in0.0 mm
09:27 PM 89.4°F31.9°C 48.9°F9.4°C 25% 4.0 mph SW6.4 kmh SW 4.0 mph6.4 kmh -338605.1 mb - 0.00 in0.0 mm 0.00 in0.0 mm
09:32 PM 89.2°F31.8°C 48.7°F9.3°C 25% 4.0 mph SW6.4 kmh SW 0.9 mph1.4 kmh -338605.1 mb - 0.00 in0.0 mm 0.00 in0.0 mm
09:37 PM 89.1°F31.7°C 48.7°F9.3°C 25% 2.9 mph SW4.7 kmh SW 4.0 mph6.4 kmh -338605.1 mb - 0.00 in0.0 mm 0.00 in0.0 mm
09:42 PM 88.9°F31.6°C 48.6°F9.2°C 25% 4.0 mph SW6.4 kmh SW 6.0 mph9.7 kmh -338605.1 mb - 0.00 in0.0 mm 0.00 in0.0 mm
09:47 PM 88.5°F31.4°C 48.2°F9.0°C 25% 6.0 mph SW9.7 kmh SW 10.1 mph16.3 kmh -338605.1 mb - 0.00 in0.0 mm 0.00 in0.0 mm
09:52 PM 88.5°F31.4°C 48.2°F9.0°C 25% 6.9 mph SW11.1 kmh SW 8.9 mph14.3 kmh -338605.1 mb - 0.00 in0.0 mm 0.00 in0.0 mm
09:57 PM 88.3°F31.3°C 48.0°F8.9°C 25% 6.9 mph SSW11.1 kmh SSW 6.9 mph11.1 kmh -338605.1 mb - 0.00 in0.0 mm 0.00 in0.0 mm
10:02 PM 88.3°F31.3°C 48.0°F8.9°C 25% 6.0 mph S9.7 kmh S 6.0 mph9.7 kmh -338605.1 mb - 0.00 in0.0 mm 0.00 in0.0 mm
10:07 PM 88.0°F31.1°C 48.7°F9.3°C 26% 6.0 mph S9.7 kmh S 4.0 mph6.4 kmh -338605.1 mb - 0.00 in0.0 mm 0.00 in0.0 mm
10:12 PM 87.8°F31.0°C 49.6°F9.8°C 27% 6.0 mph S9.7 kmh S 6.9 mph11.1 kmh -338605.1 mb - 0.00 in0.0 mm 0.00 in0.0 mm
10:17 PM 87.6°F30.9°C 49.5°F9.7°C 27% 6.0 mph S9.7 kmh S 10.1 mph16.3 kmh -338605.1 mb - 0.00 in0.0 mm 0.00 in0.0 mm
10:22 PM 87.6°F30.9°C 49.5°F9.7°C 27% 6.0 mph S9.7 kmh S 6.0 mph9.7 kmh -338605.1 mb - 0.00 in0.0 mm 0.00 in0.0 mm
10:27 PM 87.4°F30.8°C 49.3°F9.6°C 27% 6.0 mph S9.7 kmh S 2.0 mph3.2 kmh -338605.1 mb - 0.00 in0.0 mm 0.00 in0.0 mm
10:32 PM 87.3°F30.7°C 49.3°F9.6°C 27% 4.9 mph SE7.9 kmh SE 2.9 mph4.7 kmh -338605.1 mb - 0.00 in0.0 mm 0.00 in0.0 mm
10:37 PM 87.1°F30.6°C 49.1°F9.5°C 27% 4.0 mph SE6.4 kmh SE 2.9 mph4.7 kmh -338605.1 mb - 0.00 in0.0 mm 0.00 in0.0 mm
10:42 PM 86.9°F30.5°C 49.8°F9.9°C 28% 2.9 mph SE4.7 kmh SE 2.9 mph4.7 kmh -338605.1 mb - 0.00 in0.0 mm 0.00 in0.0 mm
10:47 PM 86.5°F30.3°C 49.6°F9.8°C 28% 2.9 mph SE4.7 kmh SE 6.0 mph9.7 kmh -338605.1 mb - 0.00 in0.0 mm 0.00 in0.0 mm
10:52 PM 86.4°F30.2°C 50.4°F10.2°C 29% 4.0 mph SE6.4 kmh SE 6.0 mph9.7 kmh -338605.1 mb - 0.00 in0.0 mm 0.00 in0.0 mm
10:57 PM 86.0°F30.0°C 50.0°F10.0°C 29% 4.9 mph SE7.9 kmh SE 4.9 mph7.9 kmh -338605.1 mb - 0.00 in0.0 mm 0.00 in0.0 mm
11:02 PM 86.0°F30.0°C 50.0°F10.0°C 29% 6.0 mph S9.7 kmh S 8.1 mph13.0 kmh -338605.1 mb - 0.00 in0.0 mm 0.00 in0.0 mm
11:07 PM 86.0°F30.0°C 50.0°F10.0°C 29% 6.0 mph S9.7 kmh S 4.0 mph6.4 kmh -338605.1 mb - 0.00 in0.0 mm 0.00 in0.0 mm
11:12 PM 85.8°F29.9°C 49.8°F9.9°C 29% 4.9 mph S7.9 kmh S 2.9 mph4.7 kmh -338605.1 mb - 0.00 in0.0 mm 0.00 in0.0 mm
11:17 PM 85.6°F29.8°C 49.8°F9.9°C 29% 4.0 mph SSW6.4 kmh SSW 6.9 mph11.1 kmh -338605.1 mb - 0.00 in0.0 mm 0.00 in0.0 mm
11:22 PM 85.5°F29.7°C 50.5°F10.3°C 30% 4.9 mph SSW7.9 kmh SSW 8.1 mph13.0 kmh -338605.1 mb - 0.00 in0.0 mm 0.00 in0.0 mm
11:27 PM 85.5°F29.7°C 50.5°F10.3°C 30% 6.0 mph SSW9.7 kmh SSW 4.9 mph7.9 kmh -338605.1 mb - 0.00 in0.0 mm 0.00 in0.0 mm
11:32 PM 85.5°F29.7°C 50.5°F10.3°C 30% 6.9 mph SW11.1 kmh SW 4.9 mph7.9 kmh -338605.1 mb - 0.00 in0.0 mm 0.00 in0.0 mm
11:37 PM 85.3°F29.6°C 50.4°F10.2°C 30% 6.0 mph S9.7 kmh S 8.1 mph13.0 kmh -338605.1 mb - 0.00 in0.0 mm 0.00 in0.0 mm
11:42 PM 85.1°F29.5°C 50.2°F10.1°C 30% 6.0 mph S9.7 kmh S 4.9 mph7.9 kmh -338605.1 mb - 0.00 in0.0 mm 0.00 in0.0 mm
11:47 PM 84.9°F29.4°C 50.9°F10.5°C 31% 6.0 mph S9.7 kmh S 8.9 mph14.3 kmh -338605.1 mb - 0.00 in0.0 mm 0.00 in0.0 mm
11:52 PM 84.9°F29.4°C 50.9°F10.5°C 31% 6.0 mph SSE9.7 kmh SSE 4.0 mph6.4 kmh -338605.1 mb - 0.00 in0.0 mm 0.00 in0.0 mm
11:57 PM 85.1°F29.5°C 50.2°F10.1°C 30% 6.9 mph SE11.1 kmh SE 4.0 mph6.4 kmh -338605.1 mb - 0.00 in0.0 mm 0.00 in0.0 mm